Flight Track Log - Related Links

Times and Time Zones

All times are in EDT time to prevent confusion due to time zone crossing. See the SLI677 flight status page for this flight to view local times or setup timezone preferences in your user account.


Time Position Orientation Groundspeed Altitude Reporting Facility
EDT Latitude Longitude Course Direction KTS MPH feet Rate Location/Type
Wed 08:12:00 AM 14.6745 -90.6790 302° West  Level Estimated
Wed 08:13:00 AM 14.7201 -90.7549 302° West  Level Estimated
Wed 08:14:00 AM 14.7656 -90.8307 302° West  Level Estimated
Wed 08:15:00 AM 14.8112 -90.9066 302° West  Level Estimated
Wed 08:16:00 AM 14.8567 -90.9825 302° West  Level Estimated
Wed 08:17:00 AM 14.9021 -91.0585 302° West  Level Estimated
Wed 08:18:00 AM 14.9476 -91.1345 302° West  Level Estimated
Wed 08:19:00 AM 14.9930 -91.2105 302° West  Level Estimated
Wed 08:20:00 AM 15.0384 -91.2865 302° West  Level Estimated
Wed 08:21:00 AM 15.0838 -91.3626 302° West  Level Estimated
Wed 08:22:00 AM 15.1292 -91.4387 302° West  Level Estimated
Wed 08:23:00 AM 15.1745 -91.5149 302° West  Level Estimated
Wed 08:24:00 AM 15.2198 -91.5910 302° West  Level Estimated
Wed 08:25:00 AM 15.2651 -91.6673 302° West  Level Estimated
Wed 08:26:00 AM 15.3103 -91.7435 302° West  Level Estimated
Wed 08:27:00 AM 15.3555 -91.8198 302° West  Level Estimated
Wed 08:28:00 AM 15.4007 -91.8961 302° West  Level Estimated
Wed 08:29:00 AM 15.4459 -91.9724 302° West  Level Estimated
Wed 08:30:00 AM 15.4911 -92.0488 302° West  Level Estimated
Wed 08:31:00 AM 15.5362 -92.1252 302° West  Level Estimated
Wed 08:32:00 AM 15.5813 -92.2017 301° West  Level Estimated
Wed 08:33:00 AM 15.6264 -92.2781 301° West  Level Estimated
Wed 08:34:00 AM 15.6714 -92.3546 301° West  Level Estimated
Wed 08:35:00 AM 15.7164 -92.4312 301° West  Level Estimated
Wed 08:36:00 AM 15.7614 -92.5078 301° West  Level Estimated
Wed 08:37:00 AM 15.8064 -92.5844 301° West  Level Estimated
Wed 08:38:00 AM 15.8513 -92.6610 301° West  Level Estimated
Wed 08:39:00 AM 15.8962 -92.7377 301° West  Level Estimated
Wed 08:40:00 AM 15.9411 -92.8144 301° West  Level Estimated
Wed 08:41:00 AM 15.9859 -92.8912 301° West  Level Estimated
Wed 08:42:00 AM 16.0308 -92.9679 301° West  Level Estimated
Wed 08:43:00 AM 16.0756 -93.0448 301° West  Level Estimated
Wed 08:44:00 AM 16.1203 -93.1216 301° West  Level Estimated
Wed 08:45:00 AM 16.1651 -93.1985 301° West  Level Estimated
Wed 08:46:00 AM 16.2098 -93.2754 301° West  Level Estimated
Wed 08:47:00 AM 16.2545 -93.3524 301° West  Level Estimated
Wed 08:48:00 AM 16.2992 -93.4294 301° West  Level Estimated
Wed 08:49:00 AM 16.3438 -93.5064 301° West  Level Estimated
Wed 08:50:00 AM 16.3884 -93.5835 301° West  Level Estimated
Wed 08:51:00 AM 16.4330 -93.6606 301° West  Level Estimated
Wed 08:52:00 AM 16.4775 -93.7377 301° West  Level Estimated
Wed 08:53:00 AM 16.5220 -93.8149 301° West  Level Estimated
Wed 08:54:00 AM 16.5665 -93.8921 301° West  Level Estimated
Wed 08:55:00 AM 16.6110 -93.9693 301° West  Level Estimated
Wed 08:56:00 AM 16.6554 -94.0466 301° West  Level Estimated
Wed 08:57:00 AM 16.6998 -94.1239 301° West  Level Estimated
Wed 08:58:00 AM 16.7442 -94.2012 301° West  Level Estimated
Wed 08:59:00 AM 16.7886 -94.2786 301° West  Level Estimated
Wed 09:00:00 AM 16.8329 -94.3560 301° West  Level Estimated
Wed 09:01:00 AM 16.8772 -94.4335 301° West  Level Estimated
Wed 09:02:00 AM 16.9214 -94.5110 301° West  Level Estimated
Wed 09:03:00 AM 16.9657 -94.5885 301° West  Level Estimated
Wed 09:04:00 AM 17.0099 -94.6661 301° West  Level Estimated
Wed 09:05:00 AM 17.0540 -94.7437 301° West  Level Estimated
Wed 09:06:00 AM 17.0982 -94.8213 301° West  Level Estimated
Wed 09:07:00 AM 17.1423 -94.8990 301° West  Level Estimated
Wed 09:08:00 AM 17.1864 -94.9767 301° West  Level Estimated
Wed 09:09:00 AM 17.2305 -95.0544 301° West  Level Estimated
Wed 09:10:00 AM 17.2745 -95.1322 301° West  Level Estimated
Wed 09:11:00 AM 17.3185 -95.2100 301° West  Level Estimated
Wed 09:12:00 AM 17.3625 -95.2879 301° West  Level Estimated
Wed 09:13:00 AM 17.4064 -95.3658 301° West  Level Estimated
Wed 09:14:00 AM 17.4503 -95.4437 301° West  Level Estimated
Wed 09:15:00 AM 17.4942 -95.5217 301° West  Level Estimated
Wed 09:16:00 AM 17.5380 -95.5997 301° West  Level Estimated
Wed 09:17:00 AM 17.5818 -95.6778 301° West  Level Estimated
Wed 09:18:00 AM 17.6256 -95.7559 300° West  Level Estimated
Wed 09:19:00 AM 17.6694 -95.8340 300° West  Level Estimated
Wed 09:20:00 AM 17.7131 -95.9121 300° West  Level Estimated
Wed 09:21:00 AM 17.7568 -95.9903 300° West  Level Estimated
Wed 09:22:00 AM 17.8004 -96.0686 300° West  Level Estimated
Wed 09:23:00 AM 17.8441 -96.1469 300° West  Level Estimated
Wed 09:24:00 AM 17.8877 -96.2252 300° West  Level Estimated
Wed 09:25:00 AM 17.9312 -96.3035 300° West  Level Estimated
Wed 09:26:00 AM 17.9748 -96.3819 300° West  Level Estimated
Wed 09:27:00 AM 18.0183 -96.4603 300° West  Level Estimated
Wed 09:28:00 AM 18.0618 -96.5388 300° West  Level Estimated
Wed 09:29:00 AM 18.1052 -96.6173 300° West  Level Estimated
Wed 09:30:00 AM 18.1486 -96.6959 300° West  Level Estimated
Wed 09:31:00 AM 18.1920 -96.7744 300° West  Level Estimated
Wed 09:32:00 AM 18.2353 -96.8531 300° West  Level Estimated
Wed 09:33:00 AM 18.2786 -96.9317 300° West  Level Estimated
Wed 09:34:00 AM 18.3219 -97.0104 300° West  Level Estimated
Wed 09:35:00 AM 18.3652 -97.0892 300° West  Level Estimated
Wed 09:36:00 AM 18.4084 -97.1679 300° West  Level Estimated
Wed 09:37:00 AM 18.4516 -97.2468 300° West  Level Estimated
Wed 09:38:00 AM 18.4947 -97.3256 300° West  Level Estimated
Wed 09:39:00 AM 18.5378 -97.4045 300° West  Level Estimated
Wed 09:40:00 AM 18.5809 -97.4835 300° West  Level Estimated
Wed 09:41:00 AM 18.6240 -97.5624 300° West  Level Estimated
Wed 09:42:00 AM 18.6670 -97.6415 300° West  Level Estimated
Wed 09:43:00 AM 18.7100 -97.7205 300° West  Level Estimated
Wed 09:44:00 AM 18.7529 -97.7996 300° West  Level Estimated
Wed 09:45:00 AM 18.7959 -97.8788 300° West  Level Estimated
Wed 09:46:00 AM 18.8388 -97.9579 300° West  Level Estimated
Wed 09:47:00 AM 18.8816 -98.0372 300° West  Level Estimated
Wed 09:48:00 AM 18.9244 -98.1164 300° West  Level Estimated

Login

Don't have an account? Register now (free) for customized features, flight alerts, and more!